sensor_id;sensor_type;location;lat;lon;timestamp;P1;durP1;ratioP1;P2;durP2;ratioP2
59938;SDS011;45801;51.810;19.444;2022-12-18T00:01:03;41.50;;;20.80;;
59938;SDS011;45801;51.810;19.444;2022-12-18T00:03:42;36.90;;;18.50;;
59938;SDS011;45801;51.810;19.444;2022-12-18T00:06:08;31.00;;;12.90;;
59938;SDS011;45801;51.810;19.444;2022-12-18T00:08:35;39.00;;;20.70;;
59938;SDS011;45801;51.810;19.444;2022-12-18T00:11:05;40.50;;;20.00;;
59938;SDS011;45801;51.810;19.444;2022-12-18T00:13:33;37.10;;;18.70;;
59938;SDS011;45801;51.810;19.444;2022-12-18T00:16:04;37.80;;;17.00;;
59938;SDS011;45801;51.810;19.444;2022-12-18T00:18:35;36.10;;;17.80;;
59938;SDS011;45801;51.810;19.444;2022-12-18T00:21:02;32.70;;;15.10;;
59938;SDS011;45801;51.810;19.444;2022-12-18T00:23:32;36.00;;;17.40;;
59938;SDS011;45801;51.810;19.444;2022-12-18T00:26:00;37.30;;;20.80;;
59938;SDS011;45801;51.810;19.444;2022-12-18T00:28:28;39.20;;;19.20;;
59938;SDS011;45801;51.810;19.444;2022-12-18T00:31:01;33.40;;;17.00;;
59938;SDS011;45801;51.810;19.444;2022-12-18T00:33:36;37.50;;;18.50;;
59938;SDS011;45801;51.810;19.444;2022-12-18T00:36:04;35.80;;;17.50;;
59938;SDS011;45801;51.810;19.444;2022-12-18T00:38:32;29.30;;;15.30;;
59938;SDS011;45801;51.810;19.444;2022-12-18T00:40:59;31.80;;;16.60;;
59938;SDS011;45801;51.810;19.444;2022-12-18T00:43:26;34.20;;;16.90;;
59938;SDS011;45801;51.810;19.444;2022-12-18T00:45:53;32.10;;;17.20;;
59938;SDS011;45801;51.810;19.444;2022-12-18T00:48:19;34.10;;;16.00;;
59938;SDS011;45801;51.810;19.444;2022-12-18T00:50:52;33.70;;;18.10;;
59938;SDS011;45801;51.810;19.444;2022-12-18T00:53:18;34.80;;;20.00;;
59938;SDS011;45801;51.810;19.444;2022-12-18T00:55:45;35.80;;;18.00;;
59938;SDS011;45801;51.810;19.444;2022-12-18T00:58:13;33.20;;;16.60;;
59938;SDS011;45801;51.810;19.444;2022-12-18T01:00:41;35.20;;;16.90;;
59938;SDS011;45801;51.810;19.444;2022-12-18T01:03:09;36.30;;;19.40;;
59938;SDS011;45801;51.810;19.444;2022-12-18T01:05:39;35.00;;;17.70;;
59938;SDS011;45801;51.810;19.444;2022-12-18T01:08:07;37.40;;;18.10;;
59938;SDS011;45801;51.810;19.444;2022-12-18T01:10:33;34.40;;;17.00;;
59938;SDS011;45801;51.810;19.444;2022-12-18T01:13:00;35.80;;;16.90;;
59938;SDS011;45801;51.810;19.444;2022-12-18T01:15:26;33.70;;;16.70;;
59938;SDS011;45801;51.810;19.444;2022-12-18T01:17:53;34.30;;;17.10;;
59938;SDS011;45801;51.810;19.444;2022-12-18T01:20:19;31.60;;;16.30;;
59938;SDS011;45801;51.810;19.444;2022-12-18T01:22:46;34.20;;;17.20;;
59938;SDS011;45801;51.810;19.444;2022-12-18T01:25:13;29.80;;;15.00;;
59938;SDS011;45801;51.810;19.444;2022-12-18T01:27:39;28.60;;;16.00;;
59938;SDS011;45801;51.810;19.444;2022-12-18T01:30:06;32.80;;;15.70;;
59938;SDS011;45801;51.810;19.444;2022-12-18T01:32:33;24.10;;;10.90;;
59938;SDS011;45801;51.810;19.444;2022-12-18T01:35:00;30.00;;;14.20;;
59938;SDS011;45801;51.810;19.444;2022-12-18T01:37:27;27.90;;;14.20;;
59938;SDS011;45801;51.810;19.444;2022-12-18T01:39:53;36.20;;;17.80;;
59938;SDS011;45801;51.810;19.444;2022-12-18T01:42:21;32.50;;;16.90;;
59938;SDS011;45801;51.810;19.444;2022-12-18T01:47:43;34.10;;;15.90;;
59938;SDS011;45801;51.810;19.444;2022-12-18T01:50:17;31.40;;;16.00;;
59938;SDS011;45801;51.810;19.444;2022-12-18T01:52:51;33.80;;;18.20;;
59938;SDS011;45801;51.810;19.444;2022-12-18T01:55:21;35.80;;;18.10;;
59938;SDS011;45801;51.810;19.444;2022-12-18T01:57:55;35.10;;;16.70;;
59938;SDS011;45801;51.810;19.444;2022-12-18T02:02:51;26.60;;;13.90;;
59938;SDS011;45801;51.810;19.444;2022-12-18T02:08:41;29.80;;;15.40;;
59938;SDS011;45801;51.810;19.444;2022-12-18T02:16:59;33.30;;;16.30;;
59938;SDS011;45801;51.810;19.444;2022-12-18T02:19:42;26.30;;;13.40;;
59938;SDS011;45801;51.810;19.444;2022-12-18T02:25:20;28.30;;;14.80;;
59938;SDS011;45801;51.810;19.444;2022-12-18T02:27:57;27.20;;;13.20;;
59938;SDS011;45801;51.810;19.444;2022-12-18T02:30:26;30.50;;;14.40;;
59938;SDS011;45801;51.810;19.444;2022-12-18T02:32:58;27.60;;;13.90;;
59938;SDS011;45801;51.810;19.444;2022-12-18T02:35:27;26.90;;;13.90;;
59938;SDS011;45801;51.810;19.444;2022-12-18T02:37:56;28.90;;;14.00;;
59938;SDS011;45801;51.810;19.444;2022-12-18T02:40:25;30.50;;;14.80;;
59938;SDS011;45801;51.810;19.444;2022-12-18T02:42:54;31.10;;;14.70;;
59938;SDS011;45801;51.810;19.444;2022-12-18T02:45:20;31.40;;;16.00;;
59938;SDS011;45801;51.810;19.444;2022-12-18T02:47:48;28.70;;;15.00;;
59938;SDS011;45801;51.810;19.444;2022-12-18T02:50:35;32.80;;;15.20;;
59938;SDS011;45801;51.810;19.444;2022-12-18T02:56:04;30.60;;;15.90;;
59938;SDS011;45801;51.810;19.444;2022-12-18T02:58:40;27.40;;;14.40;;
59938;SDS011;45801;51.810;19.444;2022-12-18T03:01:32;29.40;;;14.50;;
59938;SDS011;45801;51.810;19.444;2022-12-18T03:04:11;30.10;;;14.20;;
59938;SDS011;45801;51.810;19.444;2022-12-18T03:06:44;27.50;;;13.50;;
59938;SDS011;45801;51.810;19.444;2022-12-18T03:09:16;29.90;;;13.80;;
59938;SDS011;45801;51.810;19.444;2022-12-18T03:14:45;27.50;;;14.00;;
59938;SDS011;45801;51.810;19.444;2022-12-18T03:17:22;28.50;;;14.00;;
59938;SDS011;45801;51.810;19.444;2022-12-18T03:19:51;30.40;;;14.50;;
59938;SDS011;45801;51.810;19.444;2022-12-18T03:22:20;29.00;;;15.30;;
59938;SDS011;45801;51.810;19.444;2022-12-18T03:24:50;30.00;;;14.90;;
59938;SDS011;45801;51.810;19.444;2022-12-18T03:27:18;25.40;;;12.60;;
59938;SDS011;45801;51.810;19.444;2022-12-18T03:29:48;28.80;;;14.20;;
59938;SDS011;45801;51.810;19.444;2022-12-18T03:34:58;31.10;;;14.70;;
59938;SDS011;45801;51.810;19.444;2022-12-18T03:37:29;29.50;;;15.00;;
59938;SDS011;45801;51.810;19.444;2022-12-18T03:39:57;29.40;;;14.30;;
59938;SDS011;45801;51.810;19.444;2022-12-18T03:42:29;32.00;;;15.10;;
59938;SDS011;45801;51.810;19.444;2022-12-18T03:45:09;33.50;;;16.50;;
59938;SDS011;45801;51.810;19.444;2022-12-18T03:48:16;31.60;;;16.30;;
59938;SDS011;45801;51.810;19.444;2022-12-18T03:50:45;34.20;;;15.80;;
59938;SDS011;45801;51.810;19.444;2022-12-18T03:56:10;28.10;;;14.30;;
59938;SDS011;45801;51.810;19.444;2022-12-18T03:58:40;33.90;;;17.40;;
59938;SDS011;45801;51.810;19.444;2022-12-18T04:01:09;31.70;;;15.40;;
59938;SDS011;45801;51.810;19.444;2022-12-18T04:03:39;31.80;;;16.10;;
59938;SDS011;45801;51.810;19.444;2022-12-18T04:06:08;32.50;;;15.80;;
59938;SDS011;45801;51.810;19.444;2022-12-18T04:08:37;31.90;;;15.10;;
59938;SDS011;45801;51.810;19.444;2022-12-18T04:11:06;31.20;;;16.80;;
59938;SDS011;45801;51.810;19.444;2022-12-18T04:13:34;33.10;;;17.70;;
59938;SDS011;45801;51.810;19.444;2022-12-18T04:16:03;33.70;;;16.80;;
59938;SDS011;45801;51.810;19.444;2022-12-18T04:18:30;38.70;;;17.80;;
59938;SDS011;45801;51.810;19.444;2022-12-18T04:20:56;35.70;;;17.40;;
59938;SDS011;45801;51.810;19.444;2022-12-18T04:23:23;39.70;;;19.10;;
59938;SDS011;45801;51.810;19.444;2022-12-18T04:25:49;31.50;;;16.30;;
59938;SDS011;45801;51.810;19.444;2022-12-18T04:28:16;34.20;;;19.20;;
59938;SDS011;45801;51.810;19.444;2022-12-18T04:30:42;35.40;;;17.00;;
59938;SDS011;45801;51.810;19.444;2022-12-18T04:33:10;34.90;;;18.20;;
59938;SDS011;45801;51.810;19.444;2022-12-18T04:35:38;35.80;;;17.00;;
59938;SDS011;45801;51.810;19.444;2022-12-18T04:38:06;31.90;;;15.80;;
59938;SDS011;45801;51.810;19.444;2022-12-18T04:40:34;33.50;;;16.70;;
59938;SDS011;45801;51.810;19.444;2022-12-18T04:43:02;32.50;;;16.50;;
59938;SDS011;45801;51.810;19.444;2022-12-18T04:45:32;31.70;;;17.50;;
59938;SDS011;45801;51.810;19.444;2022-12-18T04:47:59;32.50;;;15.80;;
59938;SDS011;45801;51.810;19.444;2022-12-18T04:50:28;32.60;;;14.60;;
59938;SDS011;45801;51.810;19.444;2022-12-18T04:52:57;30.10;;;15.10;;
59938;SDS011;45801;51.810;19.444;2022-12-18T04:55:23;31.90;;;16.10;;
59938;SDS011;45801;51.810;19.444;2022-12-18T04:57:50;32.80;;;16.90;;
59938;SDS011;45801;51.810;19.444;2022-12-18T05:00:16;33.70;;;17.00;;
59938;SDS011;45801;51.810;19.444;2022-12-18T05:02:43;31.90;;;16.40;;
59938;SDS011;45801;51.810;19.444;2022-12-18T05:05:10;32.40;;;15.80;;
59938;SDS011;45801;51.810;19.444;2022-12-18T05:07:36;36.50;;;17.80;;
59938;SDS011;45801;51.810;19.444;2022-12-18T05:10:06;37.40;;;17.70;;
59938;SDS011;45801;51.810;19.444;2022-12-18T05:12:33;32.50;;;16.20;;
59938;SDS011;45801;51.810;19.444;2022-12-18T05:14:59;32.60;;;17.00;;
59938;SDS011;45801;51.810;19.444;2022-12-18T05:17:26;35.40;;;17.50;;
59938;SDS011;45801;51.810;19.444;2022-12-18T05:19:52;35.10;;;17.00;;
59938;SDS011;45801;51.810;19.444;2022-12-18T05:22:18;37.10;;;17.70;;
59938;SDS011;45801;51.810;19.444;2022-12-18T05:24:45;31.70;;;16.90;;
59938;SDS011;45801;51.810;19.444;2022-12-18T05:27:11;37.50;;;17.40;;
59938;SDS011;45801;51.810;19.444;2022-12-18T05:29:38;37.00;;;19.10;;
59938;SDS011;45801;51.810;19.444;2022-12-18T05:32:04;38.80;;;19.40;;
59938;SDS011;45801;51.810;19.444;2022-12-18T05:34:31;40.10;;;19.50;;
59938;SDS011;45801;51.810;19.444;2022-12-18T05:36:57;36.30;;;18.30;;
59938;SDS011;45801;51.810;19.444;2022-12-18T05:39:24;40.90;;;20.30;;
59938;SDS011;45801;51.810;19.444;2022-12-18T05:41:50;39.70;;;19.30;;
59938;SDS011;45801;51.810;19.444;2022-12-18T05:44:17;39.90;;;18.60;;
59938;SDS011;45801;51.810;19.444;2022-12-18T05:46:43;36.70;;;18.60;;
59938;SDS011;45801;51.810;19.444;2022-12-18T05:49:10;36.40;;;18.50;;
59938;SDS011;45801;51.810;19.444;2022-12-18T05:51:38;38.90;;;18.80;;
59938;SDS011;45801;51.810;19.444;2022-12-18T05:54:04;44.80;;;22.40;;
59938;SDS011;45801;51.810;19.444;2022-12-18T05:56:31;40.70;;;19.80;;
59938;SDS011;45801;51.810;19.444;2022-12-18T05:58:58;37.30;;;20.70;;
59938;SDS011;45801;51.810;19.444;2022-12-18T06:01:25;42.30;;;21.50;;
59938;SDS011;45801;51.810;19.444;2022-12-18T06:03:52;36.40;;;18.30;;
59938;SDS011;45801;51.810;19.444;2022-12-18T06:06:20;40.30;;;19.90;;
59938;SDS011;45801;51.810;19.444;2022-12-18T06:08:49;41.50;;;22.00;;
59938;SDS011;45801;51.810;19.444;2022-12-18T06:11:17;42.80;;;22.10;;
59938;SDS011;45801;51.810;19.444;2022-12-18T06:16:18;39.70;;;18.50;;
59938;SDS011;45801;51.810;19.444;2022-12-18T06:18:46;41.80;;;21.10;;
59938;SDS011;45801;51.810;19.444;2022-12-18T06:21:12;39.40;;;19.80;;
59938;SDS011;45801;51.810;19.444;2022-12-18T06:23:39;43.80;;;22.50;;
59938;SDS011;45801;51.810;19.444;2022-12-18T06:26:06;51.80;;;24.50;;
59938;SDS011;45801;51.810;19.444;2022-12-18T06:28:35;51.30;;;24.50;;
59938;SDS011;45801;51.810;19.444;2022-12-18T06:31:05;44.90;;;23.30;;
59938;SDS011;45801;51.810;19.444;2022-12-18T06:33:32;46.60;;;23.00;;
59938;SDS011;45801;51.810;19.444;2022-12-18T06:36:04;47.50;;;23.50;;
59938;SDS011;45801;51.810;19.444;2022-12-18T06:38:34;55.60;;;23.80;;
59938;SDS011;45801;51.810;19.444;2022-12-18T06:41:11;45.00;;;22.90;;
59938;SDS011;45801;51.810;19.444;2022-12-18T06:43:39;43.30;;;21.60;;
59938;SDS011;45801;51.810;19.444;2022-12-18T06:46:06;46.10;;;22.40;;
59938;SDS011;45801;51.810;19.444;2022-12-18T06:48:33;46.70;;;24.10;;
59938;SDS011;45801;51.810;19.444;2022-12-18T06:50:59;42.10;;;20.10;;
59938;SDS011;45801;51.810;19.444;2022-12-18T06:53:27;49.30;;;25.00;;
59938;SDS011;45801;51.810;19.444;2022-12-18T06:55:59;44.10;;;23.60;;
59938;SDS011;45801;51.810;19.444;2022-12-18T06:58:27;48.20;;;23.40;;
59938;SDS011;45801;51.810;19.444;2022-12-18T07:00:54;52.80;;;24.10;;
59938;SDS011;45801;51.810;19.444;2022-12-18T07:03:26;49.90;;;23.80;;
59938;SDS011;45801;51.810;19.444;2022-12-18T07:05:52;49.20;;;23.20;;
59938;SDS011;45801;51.810;19.444;2022-12-18T07:08:19;49.70;;;23.90;;
59938;SDS011;45801;51.810;19.444;2022-12-18T07:10:45;41.60;;;21.50;;
59938;SDS011;45801;51.810;19.444;2022-12-18T07:13:12;46.30;;;21.50;;
59938;SDS011;45801;51.810;19.444;2022-12-18T07:15:38;44.50;;;21.30;;
59938;SDS011;45801;51.810;19.444;2022-12-18T07:18:05;45.60;;;21.80;;
59938;SDS011;45801;51.810;19.444;2022-12-18T07:20:31;47.40;;;24.30;;
59938;SDS011;45801;51.810;19.444;2022-12-18T07:23:01;48.60;;;24.20;;
59938;SDS011;45801;51.810;19.444;2022-12-18T07:25:28;51.20;;;23.80;;
59938;SDS011;45801;51.810;19.444;2022-12-18T07:27:56;48.80;;;25.80;;
59938;SDS011;45801;51.810;19.444;2022-12-18T07:30:22;48.00;;;23.00;;
59938;SDS011;45801;51.810;19.444;2022-12-18T07:32:48;45.60;;;22.50;;
59938;SDS011;45801;51.810;19.444;2022-12-18T07:35:16;42.80;;;21.40;;
59938;SDS011;45801;51.810;19.444;2022-12-18T07:37:43;41.60;;;20.00;;
59938;SDS011;45801;51.810;19.444;2022-12-18T07:40:10;46.70;;;22.30;;
59938;SDS011;45801;51.810;19.444;2022-12-18T07:42:36;44.60;;;21.90;;
59938;SDS011;45801;51.810;19.444;2022-12-18T07:45:03;43.10;;;21.80;;
59938;SDS011;45801;51.810;19.444;2022-12-18T07:47:30;45.30;;;22.40;;
59938;SDS011;45801;51.810;19.444;2022-12-18T07:49:57;51.80;;;23.00;;
59938;SDS011;45801;51.810;19.444;2022-12-18T07:52:23;48.50;;;22.40;;
59938;SDS011;45801;51.810;19.444;2022-12-18T07:54:49;41.40;;;21.00;;
59938;SDS011;45801;51.810;19.444;2022-12-18T07:57:16;45.70;;;22.20;;
59938;SDS011;45801;51.810;19.444;2022-12-18T07:59:43;46.60;;;21.00;;
59938;SDS011;45801;51.810;19.444;2022-12-18T08:02:09;46.30;;;22.60;;
59938;SDS011;45801;51.810;19.444;2022-12-18T08:04:36;51.00;;;21.70;;
59938;SDS011;45801;51.810;19.444;2022-12-18T08:07:03;46.00;;;21.80;;
59938;SDS011;45801;51.810;19.444;2022-12-18T08:09:29;54.00;;;24.20;;
59938;SDS011;45801;51.810;19.444;2022-12-18T08:11:58;48.90;;;21.90;;
59938;SDS011;45801;51.810;19.444;2022-12-18T08:14:25;48.10;;;23.30;;
59938;SDS011;45801;51.810;19.444;2022-12-18T08:16:51;48.10;;;21.60;;
59938;SDS011;45801;51.810;19.444;2022-12-18T08:19:18;46.60;;;21.70;;
59938;SDS011;45801;51.810;19.444;2022-12-18T08:21:44;45.20;;;23.20;;
59938;SDS011;45801;51.810;19.444;2022-12-18T08:24:10;48.20;;;22.20;;
59938;SDS011;45801;51.810;19.444;2022-12-18T08:26:37;42.70;;;20.30;;
59938;SDS011;45801;51.810;19.444;2022-12-18T08:29:04;43.40;;;19.60;;
59938;SDS011;45801;51.810;19.444;2022-12-18T08:31:42;41.70;;;20.20;;
59938;SDS011;45801;51.810;19.444;2022-12-18T08:34:08;43.30;;;20.90;;
59938;SDS011;45801;51.810;19.444;2022-12-18T08:36:35;41.30;;;20.50;;
59938;SDS011;45801;51.810;19.444;2022-12-18T08:39:01;42.40;;;20.70;;
59938;SDS011;45801;51.810;19.444;2022-12-18T08:41:28;42.90;;;21.60;;
59938;SDS011;45801;51.810;19.444;2022-12-18T08:43:54;42.60;;;19.40;;
59938;SDS011;45801;51.810;19.444;2022-12-18T08:46:41;42.30;;;20.70;;
59938;SDS011;45801;51.810;19.444;2022-12-18T08:49:09;45.20;;;20.40;;
59938;SDS011;45801;51.810;19.444;2022-12-18T08:51:38;46.50;;;21.20;;
59938;SDS011;45801;51.810;19.444;2022-12-18T08:54:05;44.50;;;20.60;;
59938;SDS011;45801;51.810;19.444;2022-12-18T08:56:32;41.20;;;18.40;;
59938;SDS011;45801;51.810;19.444;2022-12-18T08:59:00;42.10;;;20.50;;
59938;SDS011;45801;51.810;19.444;2022-12-18T09:01:26;42.40;;;21.20;;
59938;SDS011;45801;51.810;19.444;2022-12-18T09:03:53;41.70;;;19.10;;
59938;SDS011;45801;51.810;19.444;2022-12-18T09:06:20;41.20;;;18.90;;
59938;SDS011;45801;51.810;19.444;2022-12-18T09:08:49;45.60;;;22.50;;
59938;SDS011;45801;51.810;19.444;2022-12-18T09:13:51;43.80;;;20.10;;
59938;SDS011;45801;51.810;19.444;2022-12-18T09:16:18;45.20;;;20.70;;
59938;SDS011;45801;51.810;19.444;2022-12-18T09:18:46;47.50;;;19.90;;
59938;SDS011;45801;51.810;19.444;2022-12-18T09:21:14;39.10;;;19.50;;
59938;SDS011;45801;51.810;19.444;2022-12-18T09:23:43;40.60;;;20.00;;
59938;SDS011;45801;51.810;19.444;2022-12-18T09:26:10;41.80;;;19.40;;
59938;SDS011;45801;51.810;19.444;2022-12-18T09:28:36;44.80;;;20.00;;
59938;SDS011;45801;51.810;19.444;2022-12-18T09:31:04;36.50;;;17.90;;
59938;SDS011;45801;51.810;19.444;2022-12-18T09:33:34;43.60;;;20.40;;
59938;SDS011;45801;51.810;19.444;2022-12-18T09:36:03;43.60;;;19.80;;
59938;SDS011;45801;51.810;19.444;2022-12-18T09:38:31;40.80;;;19.00;;
59938;SDS011;45801;51.810;19.444;2022-12-18T09:41:00;45.40;;;21.30;;
59938;SDS011;45801;51.810;19.444;2022-12-18T09:43:49;45.60;;;20.00;;
59938;SDS011;45801;51.810;19.444;2022-12-18T09:46:21;45.60;;;21.30;;
59938;SDS011;45801;51.810;19.444;2022-12-18T09:48:53;43.90;;;21.10;;
59938;SDS011;45801;51.810;19.444;2022-12-18T09:51:28;45.50;;;21.30;;
59938;SDS011;45801;51.810;19.444;2022-12-18T09:54:07;47.60;;;23.10;;
59938;SDS011;45801;51.810;19.444;2022-12-18T09:56:41;51.30;;;24.50;;
59938;SDS011;45801;51.810;19.444;2022-12-18T10:02:17;52.40;;;24.80;;
59938;SDS011;45801;51.810;19.444;2022-12-18T10:04:52;46.50;;;21.10;;
59938;SDS011;45801;51.810;19.444;2022-12-18T10:07:29;50.50;;;21.40;;
59938;SDS011;45801;51.810;19.444;2022-12-18T10:13:13;43.20;;;20.50;;
59938;SDS011;45801;51.810;19.444;2022-12-18T10:18:39;40.90;;;20.90;;
59938;SDS011;45801;51.810;19.444;2022-12-18T10:21:56;42.80;;;20.00;;
59938;SDS011;45801;51.810;19.444;2022-12-18T10:27:25;43.00;;;19.80;;
59938;SDS011;45801;51.810;19.444;2022-12-18T10:29:54;46.00;;;20.70;;
59938;SDS011;45801;51.810;19.444;2022-12-18T10:32:24;42.30;;;20.80;;
59938;SDS011;45801;51.810;19.444;2022-12-18T10:34:55;44.30;;;20.50;;
59938;SDS011;45801;51.810;19.444;2022-12-18T10:37:25;41.50;;;18.80;;
59938;SDS011;45801;51.810;19.444;2022-12-18T10:40:07;48.10;;;23.40;;
59938;SDS011;45801;51.810;19.444;2022-12-18T10:42:36;47.10;;;22.40;;
59938;SDS011;45801;51.810;19.444;2022-12-18T10:45:05;53.30;;;24.80;;
59938;SDS011;45801;51.810;19.444;2022-12-18T10:47:46;46.80;;;22.00;;
59938;SDS011;45801;51.810;19.444;2022-12-18T10:52:57;51.40;;;23.00;;
59938;SDS011;45801;51.810;19.444;2022-12-18T10:55:47;52.10;;;24.10;;
59938;SDS011;45801;51.810;19.444;2022-12-18T10:58:58;56.20;;;24.00;;
59938;SDS011;45801;51.810;19.444;2022-12-18T11:06:22;47.10;;;22.30;;
59938;SDS011;45801;51.810;19.444;2022-12-18T11:09:00;47.30;;;21.80;;
59938;SDS011;45801;51.810;19.444;2022-12-18T11:11:31;43.30;;;20.80;;
59938;SDS011;45801;51.810;19.444;2022-12-18T11:14:02;48.40;;;20.80;;
59938;SDS011;45801;51.810;19.444;2022-12-18T11:16:52;43.50;;;20.40;;
59938;SDS011;45801;51.810;19.444;2022-12-18T11:21:55;48.00;;;20.90;;
59938;SDS011;45801;51.810;19.444;2022-12-18T11:27:03;47.80;;;21.70;;
59938;SDS011;45801;51.810;19.444;2022-12-18T11:29:36;49.00;;;21.70;;
59938;SDS011;45801;51.810;19.444;2022-12-18T11:34:48;39.80;;;18.70;;
59938;SDS011;45801;51.810;19.444;2022-12-18T11:37:18;39.80;;;21.40;;
59938;SDS011;45801;51.810;19.444;2022-12-18T11:39:46;46.30;;;19.10;;
59938;SDS011;45801;51.810;19.444;2022-12-18T11:45:30;40.20;;;18.60;;
59938;SDS011;45801;51.810;19.444;2022-12-18T11:48:16;43.50;;;21.60;;
59938;SDS011;45801;51.810;19.444;2022-12-18T11:50:54;43.40;;;20.60;;
59938;SDS011;45801;51.810;19.444;2022-12-18T11:53:23;42.50;;;18.80;;
59938;SDS011;45801;51.810;19.444;2022-12-18T12:04:36;43.90;;;20.50;;
59938;SDS011;45801;51.810;19.444;2022-12-18T12:09:58;50.20;;;23.00;;
59938;SDS011;45801;51.810;19.444;2022-12-18T12:12:42;49.10;;;22.40;;
59938;SDS011;45801;51.810;19.444;2022-12-18T12:21:18;41.60;;;21.20;;
59938;SDS011;45801;51.810;19.444;2022-12-18T12:24:25;41.80;;;20.00;;
59938;SDS011;45801;51.810;19.444;2022-12-18T12:30:27;37.90;;;19.40;;
59938;SDS011;45801;51.810;19.444;2022-12-18T12:38:19;40.20;;;20.10;;
59938;SDS011;45801;51.810;19.444;2022-12-18T12:40:47;43.60;;;20.50;;
59938;SDS011;45801;51.810;19.444;2022-12-18T12:43:26;38.10;;;18.60;;
59938;SDS011;45801;51.810;19.444;2022-12-18T12:45:58;41.00;;;19.70;;
59938;SDS011;45801;51.810;19.444;2022-12-18T12:48:40;41.10;;;19.70;;
59938;SDS011;45801;51.810;19.444;2022-12-18T12:51:34;46.60;;;20.60;;
59938;SDS011;45801;51.810;19.444;2022-12-18T12:54:04;46.10;;;21.30;;
59938;SDS011;45801;51.810;19.444;2022-12-18T12:56:57;44.00;;;22.10;;
59938;SDS011;45801;51.810;19.444;2022-12-18T12:59:29;45.80;;;22.40;;
59938;SDS011;45801;51.810;19.444;2022-12-18T13:07:59;47.00;;;22.70;;
59938;SDS011;45801;51.810;19.444;2022-12-18T13:10:41;49.00;;;24.60;;
59938;SDS011;45801;51.810;19.444;2022-12-18T13:13:12;45.40;;;23.70;;
59938;SDS011;45801;51.810;19.444;2022-12-18T13:15:43;39.30;;;20.60;;
59938;SDS011;45801;51.810;19.444;2022-12-18T13:18:21;44.40;;;20.30;;
59938;SDS011;45801;51.810;19.444;2022-12-18T13:29:07;47.90;;;23.00;;
59938;SDS011;45801;51.810;19.444;2022-12-18T13:31:57;43.60;;;22.40;;
59938;SDS011;45801;51.810;19.444;2022-12-18T13:34:23;46.80;;;25.70;;
59938;SDS011;45801;51.810;19.444;2022-12-18T13:36:51;42.30;;;21.20;;
59938;SDS011;45801;51.810;19.444;2022-12-18T13:41:51;45.70;;;22.80;;
59938;SDS011;45801;51.810;19.444;2022-12-18T13:45:01;40.70;;;20.90;;
59938;SDS011;45801;51.810;19.444;2022-12-18T13:47:35;48.60;;;24.00;;
59938;SDS011;45801;51.810;19.444;2022-12-18T13:50:11;44.80;;;24.20;;
59938;SDS011;45801;51.810;19.444;2022-12-18T13:52:48;47.10;;;22.60;;
59938;SDS011;45801;51.810;19.444;2022-12-18T13:55:16;42.70;;;21.80;;
59938;SDS011;45801;51.810;19.444;2022-12-18T13:57:46;48.50;;;22.70;;
59938;SDS011;45801;51.810;19.444;2022-12-18T14:02:48;41.70;;;20.80;;
59938;SDS011;45801;51.810;19.444;2022-12-18T14:05:32;49.40;;;24.50;;
59938;SDS011;45801;51.810;19.444;2022-12-18T14:08:06;44.50;;;22.00;;
59938;SDS011;45801;51.810;19.444;2022-12-18T14:10:39;46.50;;;23.30;;
59938;SDS011;45801;51.810;19.444;2022-12-18T14:13:19;43.00;;;19.50;;
59938;SDS011;45801;51.810;19.444;2022-12-18T14:15:47;44.60;;;23.50;;
59938;SDS011;45801;51.810;19.444;2022-12-18T14:21:05;54.50;;;24.60;;
59938;SDS011;45801;51.810;19.444;2022-12-18T14:23:37;52.10;;;27.50;;
59938;SDS011;45801;51.810;19.444;2022-12-18T14:26:22;53.30;;;25.50;;
59938;SDS011;45801;51.810;19.444;2022-12-18T14:28:55;49.60;;;25.80;;
59938;SDS011;45801;51.810;19.444;2022-12-18T14:31:28;46.40;;;22.70;;
59938;SDS011;45801;51.810;19.444;2022-12-18T14:33:57;42.50;;;22.70;;
59938;SDS011;45801;51.810;19.444;2022-12-18T14:36:25;48.30;;;24.50;;
59938;SDS011;45801;51.810;19.444;2022-12-18T14:38:57;47.60;;;26.00;;
59938;SDS011;45801;51.810;19.444;2022-12-18T14:41:24;45.70;;;22.40;;
59938;SDS011;45801;51.810;19.444;2022-12-18T14:43:52;46.20;;;24.00;;
59938;SDS011;45801;51.810;19.444;2022-12-18T14:49:14;51.00;;;24.50;;
59938;SDS011;45801;51.810;19.444;2022-12-18T14:51:52;50.40;;;22.90;;
59938;SDS011;45801;51.810;19.444;2022-12-18T14:54:21;40.60;;;23.00;;
59938;SDS011;45801;51.810;19.444;2022-12-18T14:57:00;39.00;;;21.10;;
59938;SDS011;45801;51.810;19.444;2022-12-18T14:59:27;44.20;;;23.70;;
59938;SDS011;45801;51.810;19.444;2022-12-18T15:05:04;48.80;;;24.40;;
59938;SDS011;45801;51.810;19.444;2022-12-18T15:07:49;45.70;;;24.50;;
59938;SDS011;45801;51.810;19.444;2022-12-18T15:10:51;46.20;;;24.00;;
59938;SDS011;45801;51.810;19.444;2022-12-18T15:13:32;46.90;;;25.40;;
59938;SDS011;45801;51.810;19.444;2022-12-18T15:16:00;43.60;;;23.00;;
59938;SDS011;45801;51.810;19.444;2022-12-18T15:18:32;46.80;;;23.10;;
59938;SDS011;45801;51.810;19.444;2022-12-18T15:26:11;44.50;;;22.90;;
59938;SDS011;45801;51.810;19.444;2022-12-18T15:31:30;40.90;;;22.60;;
59938;SDS011;45801;51.810;19.444;2022-12-18T15:34:08;46.30;;;25.50;;
59938;SDS011;45801;51.810;19.444;2022-12-18T15:36:37;47.10;;;23.70;;
59938;SDS011;45801;51.810;19.444;2022-12-18T15:39:04;43.70;;;24.30;;
59938;SDS011;45801;51.810;19.444;2022-12-18T15:41:31;45.90;;;23.00;;
59938;SDS011;45801;51.810;19.444;2022-12-18T15:44:03;42.80;;;23.20;;
59938;SDS011;45801;51.810;19.444;2022-12-18T15:46:48;45.50;;;23.50;;
59938;SDS011;45801;51.810;19.444;2022-12-18T15:49:15;40.10;;;22.70;;
59938;SDS011;45801;51.810;19.444;2022-12-18T15:51:41;42.30;;;22.40;;
59938;SDS011;45801;51.810;19.444;2022-12-18T15:54:09;49.20;;;24.40;;
59938;SDS011;45801;51.810;19.444;2022-12-18T15:56:40;54.40;;;27.10;;
59938;SDS011;45801;51.810;19.444;2022-12-18T15:59:25;50.10;;;26.20;;
59938;SDS011;45801;51.810;19.444;2022-12-18T16:01:52;47.40;;;26.10;;
59938;SDS011;45801;51.810;19.444;2022-12-18T16:04:22;50.60;;;25.70;;
59938;SDS011;45801;51.810;19.444;2022-12-18T16:06:50;50.30;;;27.80;;
59938;SDS011;45801;51.810;19.444;2022-12-18T16:09:17;48.80;;;24.90;;
59938;SDS011;45801;51.810;19.444;2022-12-18T16:11:44;40.70;;;23.30;;
59938;SDS011;45801;51.810;19.444;2022-12-18T16:14:23;46.30;;;26.00;;
59938;SDS011;45801;51.810;19.444;2022-12-18T16:16:55;47.40;;;26.20;;
59938;SDS011;45801;51.810;19.444;2022-12-18T16:19:23;45.20;;;24.60;;
59938;SDS011;45801;51.810;19.444;2022-12-18T16:21:50;42.90;;;22.80;;
59938;SDS011;45801;51.810;19.444;2022-12-18T16:24:19;43.20;;;24.00;;
59938;SDS011;45801;51.810;19.444;2022-12-18T16:26:48;45.70;;;23.70;;
59938;SDS011;45801;51.810;19.444;2022-12-18T16:29:15;46.40;;;25.20;;
59938;SDS011;45801;51.810;19.444;2022-12-18T16:31:42;49.20;;;25.60;;
59938;SDS011;45801;51.810;19.444;2022-12-18T16:36:49;47.50;;;25.80;;
59938;SDS011;45801;51.810;19.444;2022-12-18T16:39:16;41.20;;;21.40;;